sensor_id;sensor_type;location;lat;lon;timestamp;pressure;altitude;pressure_sealevel;temperature;humidity
50349;BME280;36250;48.740;22.174;2022-10-16T00:00:31;100877.47;;;8.35;100.00
50349;BME280;36250;48.740;22.174;2022-10-16T00:02:56;100873.19;;;8.34;100.00
50349;BME280;36250;48.740;22.174;2022-10-16T00:05:22;100877.47;;;8.35;100.00
50349;BME280;36250;48.740;22.174;2022-10-16T00:07:47;100878.47;;;8.34;100.00
50349;BME280;36250;48.740;22.174;2022-10-16T00:10:12;100887.03;;;8.28;100.00
50349;BME280;36250;48.740;22.174;2022-10-16T00:12:38;100888.66;;;8.21;100.00
50349;BME280;36250;48.740;22.174;2022-10-16T00:15:04;100880.53;;;8.14;100.00
50349;BME280;36250;48.740;22.174;2022-10-16T00:17:29;100874.59;;;8.12;100.00
50349;BME280;36250;48.740;22.174;2022-10-16T00:19:55;100878.53;;;8.08;100.00
50349;BME280;36250;48.740;22.174;2022-10-16T00:22:20;100875.22;;;8.06;100.00
50349;BME280;36250;48.740;22.174;2022-10-16T00:24:45;100878.03;;;8.04;100.00
50349;BME280;36250;48.740;22.174;2022-10-16T00:27:11;100877.19;;;8.04;100.00
50349;BME280;36250;48.740;22.174;2022-10-16T00:29:36;100883.94;;;7.98;100.00
50349;BME280;36250;48.740;22.174;2022-10-16T00:32:01;100887.84;;;7.94;100.00
50349;BME280;36250;48.740;22.174;2022-10-16T00:34:27;100896.75;;;7.93;100.00
50349;BME280;36250;48.740;22.174;2022-10-16T00:36:52;100897.06;;;7.90;100.00
50349;BME280;36250;48.740;22.174;2022-10-16T00:39:17;100899.03;;;7.88;100.00
50349;BME280;36250;48.740;22.174;2022-10-16T00:41:43;100894.91;;;7.85;100.00
50349;BME280;36250;48.740;22.174;2022-10-16T00:44:44;100904.00;;;7.91;100.00
50349;BME280;36250;48.740;22.174;2022-10-16T00:47:11;100898.72;;;7.91;100.00
50349;BME280;36250;48.740;22.174;2022-10-16T00:49:38;100904.16;;;7.89;100.00
50349;BME280;36250;48.740;22.174;2022-10-16T00:52:04;100907.63;;;7.90;100.00
50349;BME280;36250;48.740;22.174;2022-10-16T00:54:31;100911.75;;;7.92;100.00
50349;BME280;36250;48.740;22.174;2022-10-16T00:57:00;100908.13;;;7.93;100.00
50349;BME280;36250;48.740;22.174;2022-10-16T00:59:32;100909.25;;;7.91;100.00
50349;BME280;36250;48.740;22.174;2022-10-16T01:01:58;100901.34;;;7.91;100.00
50349;BME280;36250;48.740;22.174;2022-10-16T01:04:24;100907.13;;;7.86;100.00
50349;BME280;36250;48.740;22.174;2022-10-16T01:09:36;100917.31;;;7.81;100.00
50349;BME280;36250;48.740;22.174;2022-10-16T01:12:10;100922.28;;;7.84;100.00
50349;BME280;36250;48.740;22.174;2022-10-16T01:14:46;100925.56;;;7.86;100.00
50349;BME280;36250;48.740;22.174;2022-10-16T01:17:17;100927.91;;;7.89;100.00
50349;BME280;36250;48.740;22.174;2022-10-16T01:20:03;100926.75;;;7.92;100.00
50349;BME280;36250;48.740;22.174;2022-10-16T01:22:55;100926.06;;;7.90;100.00
50349;BME280;36250;48.740;22.174;2022-10-16T01:25:31;100926.38;;;7.87;100.00
50349;BME280;36250;48.740;22.174;2022-10-16T01:28:01;100924.06;;;7.83;100.00
50349;BME280;36250;48.740;22.174;2022-10-16T01:30:30;100929.66;;;7.80;100.00
50349;BME280;36250;48.740;22.174;2022-10-16T01:33:09;100929.66;;;7.80;100.00
50349;BME280;36250;48.740;22.174;2022-10-16T01:35:40;100928.97;;;7.78;100.00
50349;BME280;36250;48.740;22.174;2022-10-16T01:38:17;100938.31;;;7.73;100.00
50349;BME280;36250;48.740;22.174;2022-10-16T01:40:54;100946.41;;;7.71;100.00
50349;BME280;36250;48.740;22.174;2022-10-16T01:43:29;100948.59;;;7.76;100.00
50349;BME280;36250;48.740;22.174;2022-10-16T01:45:57;100948.72;;;7.74;100.00
50349;BME280;36250;48.740;22.174;2022-10-16T01:48:23;100948.13;;;7.80;100.00
50349;BME280;36250;48.740;22.174;2022-10-16T01:51:02;100942.53;;;7.83;100.00
50349;BME280;36250;48.740;22.174;2022-10-16T01:53:29;100946.81;;;7.85;100.00
50349;BME280;36250;48.740;22.174;2022-10-16T01:55:55;100939.88;;;7.83;100.00
50349;BME280;36250;48.740;22.174;2022-10-16T01:58:22;100948.66;;;7.84;100.00
50349;BME280;36250;48.740;22.174;2022-10-16T02:00:48;100950.44;;;7.83;100.00
50349;BME280;36250;48.740;22.174;2022-10-16T02:03:16;100954.91;;;7.83;100.00
50349;BME280;36250;48.740;22.174;2022-10-16T02:05:46;100955.22;;;7.80;100.00
50349;BME280;36250;48.740;22.174;2022-10-16T02:08:12;100962.28;;;7.79;100.00
50349;BME280;36250;48.740;22.174;2022-10-16T02:10:38;100962.44;;;7.78;100.00
50349;BME280;36250;48.740;22.174;2022-10-16T02:13:11;100965.44;;;7.83;100.00
50349;BME280;36250;48.740;22.174;2022-10-16T02:15:38;100976.88;;;7.92;100.00
50349;BME280;36250;48.740;22.174;2022-10-16T02:18:05;100981.56;;;7.98;100.00
50349;BME280;36250;48.740;22.174;2022-10-16T02:20:56;100982.06;;;8.02;100.00
50349;BME280;36250;48.740;22.174;2022-10-16T02:23:45;100976.94;;;8.00;100.00
50349;BME280;36250;48.740;22.174;2022-10-16T02:26:18;100980.03;;;7.95;100.00
50349;BME280;36250;48.740;22.174;2022-10-16T02:28:52;100980.50;;;7.91;100.00
50349;BME280;36250;48.740;22.174;2022-10-16T02:31:24;100981.47;;;7.90;100.00
50349;BME280;36250;48.740;22.174;2022-10-16T02:33:53;100975.75;;;7.94;100.00
50349;BME280;36250;48.740;22.174;2022-10-16T02:36:20;100969.50;;;7.95;100.00
50349;BME280;36250;48.740;22.174;2022-10-16T02:38:46;100971.00;;;7.98;100.00
50349;BME280;36250;48.740;22.174;2022-10-16T02:41:12;100974.66;;;8.05;100.00
50349;BME280;36250;48.740;22.174;2022-10-16T02:43:37;100973.19;;;8.11;100.00
50349;BME280;36250;48.740;22.174;2022-10-16T02:46:03;100970.47;;;8.21;100.00
50349;BME280;36250;48.740;22.174;2022-10-16T02:48:28;100968.34;;;8.24;100.00
50349;BME280;36250;48.740;22.174;2022-10-16T02:50:53;100973.81;;;8.31;100.00
50349;BME280;36250;48.740;22.174;2022-10-16T02:53:19;100970.56;;;8.37;100.00
50349;BME280;36250;48.740;22.174;2022-10-16T02:55:44;100972.41;;;8.45;100.00
50349;BME280;36250;48.740;22.174;2022-10-16T02:58:09;100971.97;;;8.50;100.00
50349;BME280;36250;48.740;22.174;2022-10-16T03:00:34;100969.00;;;8.53;100.00
50349;BME280;36250;48.740;22.174;2022-10-16T03:03:00;100967.50;;;8.50;100.00
50349;BME280;36250;48.740;22.174;2022-10-16T03:05:25;100967.38;;;8.52;100.00
50349;BME280;36250;48.740;22.174;2022-10-16T03:07:51;100971.59;;;8.45;100.00
50349;BME280;36250;48.740;22.174;2022-10-16T03:10:17;100970.94;;;8.43;100.00
50349;BME280;36250;48.740;22.174;2022-10-16T03:12:43;100980.00;;;8.48;100.00
50349;BME280;36250;48.740;22.174;2022-10-16T03:15:09;100981.16;;;8.46;100.00
50349;BME280;36250;48.740;22.174;2022-10-16T03:17:34;100977.53;;;8.47;100.00
50349;BME280;36250;48.740;22.174;2022-10-16T03:20:00;100986.13;;;8.49;100.00
50349;BME280;36250;48.740;22.174;2022-10-16T03:22:25;100992.78;;;8.53;100.00
50349;BME280;36250;48.740;22.174;2022-10-16T03:24:50;100993.28;;;8.57;100.00
50349;BME280;36250;48.740;22.174;2022-10-16T03:27:16;100990.34;;;8.60;100.00
50349;BME280;36250;48.740;22.174;2022-10-16T03:29:41;100984.41;;;8.58;100.00
50349;BME280;36250;48.740;22.174;2022-10-16T03:32:06;100979.94;;;8.58;100.00
50349;BME280;36250;48.740;22.174;2022-10-16T03:34:32;100982.72;;;8.57;100.00
50349;BME280;36250;48.740;22.174;2022-10-16T03:36:57;100988.63;;;8.50;100.00
50349;BME280;36250;48.740;22.174;2022-10-16T03:39:22;101000.63;;;8.45;100.00
50349;BME280;36250;48.740;22.174;2022-10-16T03:41:48;100996.28;;;8.35;100.00
50349;BME280;36250;48.740;22.174;2022-10-16T03:44:13;100999.19;;;8.24;100.00
50349;BME280;36250;48.740;22.174;2022-10-16T03:46:39;101005.41;;;8.15;100.00
50349;BME280;36250;48.740;22.174;2022-10-16T03:49:04;101000.69;;;8.00;100.00
50349;BME280;36250;48.740;22.174;2022-10-16T03:51:30;101001.97;;;7.96;100.00
50349;BME280;36250;48.740;22.174;2022-10-16T03:53:55;100998.94;;;7.91;100.00
50349;BME280;36250;48.740;22.174;2022-10-16T03:56:20;100996.50;;;7.89;100.00
50349;BME280;36250;48.740;22.174;2022-10-16T03:58:46;101007.84;;;7.90;100.00
50349;BME280;36250;48.740;22.174;2022-10-16T04:01:11;101001.75;;;7.89;100.00
50349;BME280;36250;48.740;22.174;2022-10-16T04:03:36;101000.09;;;7.88;100.00
50349;BME280;36250;48.740;22.174;2022-10-16T04:06:02;101002.56;;;7.90;100.00
50349;BME280;36250;48.740;22.174;2022-10-16T04:08:27;101010.50;;;7.90;100.00
50349;BME280;36250;48.740;22.174;2022-10-16T04:10:53;101001.22;;;7.86;100.00
50349;BME280;36250;48.740;22.174;2022-10-16T04:13:18;100992.63;;;7.83;100.00
50349;BME280;36250;48.740;22.174;2022-10-16T04:15:44;100995.59;;;7.80;100.00
50349;BME280;36250;48.740;22.174;2022-10-16T04:18:10;101008.25;;;7.77;100.00
50349;BME280;36250;48.740;22.174;2022-10-16T04:20:35;100998.31;;;7.71;100.00
50349;BME280;36250;48.740;22.174;2022-10-16T04:23:00;101003.22;;;7.65;100.00
50349;BME280;36250;48.740;22.174;2022-10-16T04:25:26;101002.03;;;7.60;100.00
50349;BME280;36250;48.740;22.174;2022-10-16T04:27:54;101008.59;;;7.56;100.00
50349;BME280;36250;48.740;22.174;2022-10-16T04:30:20;101005.41;;;7.52;100.00
50349;BME280;36250;48.740;22.174;2022-10-16T04:32:49;101012.09;;;7.46;100.00
50349;BME280;36250;48.740;22.174;2022-10-16T04:35:16;101012.41;;;7.43;100.00
50349;BME280;36250;48.740;22.174;2022-10-16T04:37:42;101017.66;;;7.43;100.00
50349;BME280;36250;48.740;22.174;2022-10-16T04:40:07;101015.19;;;7.42;100.00
50349;BME280;36250;48.740;22.174;2022-10-16T04:42:33;101007.44;;;7.40;100.00
50349;BME280;36250;48.740;22.174;2022-10-16T04:44:58;101013.84;;;7.37;100.00
50349;BME280;36250;48.740;22.174;2022-10-16T04:47:23;101014.16;;;7.34;100.00
50349;BME280;36250;48.740;22.174;2022-10-16T04:49:48;101015.69;;;7.27;100.00
50349;BME280;36250;48.740;22.174;2022-10-16T04:52:14;101017.81;;;7.23;100.00
50349;BME280;36250;48.740;22.174;2022-10-16T04:54:40;101015.31;;;7.22;100.00
50349;BME280;36250;48.740;22.174;2022-10-16T04:57:05;101025.84;;;7.22;100.00
50349;BME280;36250;48.740;22.174;2022-10-16T04:59:30;101015.47;;;7.20;100.00
50349;BME280;36250;48.740;22.174;2022-10-16T05:01:56;101020.75;;;7.20;100.00
50349;BME280;36250;48.740;22.174;2022-10-16T05:04:21;101025.03;;;7.21;100.00
50349;BME280;36250;48.740;22.174;2022-10-16T05:06:47;101026.16;;;7.19;100.00
50349;BME280;36250;48.740;22.174;2022-10-16T05:09:13;101033.75;;;7.22;100.00
50349;BME280;36250;48.740;22.174;2022-10-16T05:11:38;101044.16;;;7.23;100.00
50349;BME280;36250;48.740;22.174;2022-10-16T05:14:03;101043.03;;;7.26;100.00
50349;BME280;36250;48.740;22.174;2022-10-16T05:16:29;101051.78;;;7.27;100.00
50349;BME280;36250;48.740;22.174;2022-10-16T05:18:55;101053.25;;;7.29;100.00
50349;BME280;36250;48.740;22.174;2022-10-16T05:21:21;101047.69;;;7.32;100.00
50349;BME280;36250;48.740;22.174;2022-10-16T05:23:46;101060.16;;;7.40;100.00
50349;BME280;36250;48.740;22.174;2022-10-16T05:26:12;101056.91;;;7.46;100.00
50349;BME280;36250;48.740;22.174;2022-10-16T05:28:37;101062.41;;;7.53;100.00
50349;BME280;36250;48.740;22.174;2022-10-16T05:31:06;101061.00;;;7.59;100.00
50349;BME280;36250;48.740;22.174;2022-10-16T05:33:32;101066.66;;;7.64;100.00
50349;BME280;36250;48.740;22.174;2022-10-16T05:36:08;101068.53;;;7.72;100.00
50349;BME280;36250;48.740;22.174;2022-10-16T05:38:34;101079.63;;;7.75;100.00
50349;BME280;36250;48.740;22.174;2022-10-16T05:41:00;101086.25;;;7.79;100.00
50349;BME280;36250;48.740;22.174;2022-10-16T05:43:27;101088.56;;;7.82;100.00
50349;BME280;36250;48.740;22.174;2022-10-16T05:45:58;101081.19;;;7.86;100.00
50349;BME280;36250;48.740;22.174;2022-10-16T05:48:24;101083.91;;;7.94;100.00
50349;BME280;36250;48.740;22.174;2022-10-16T05:51:07;101090.22;;;8.02;100.00
50349;BME280;36250;48.740;22.174;2022-10-16T05:53:35;101094.75;;;8.09;100.00
50349;BME280;36250;48.740;22.174;2022-10-16T05:56:01;101107.03;;;8.19;100.00
50349;BME280;36250;48.740;22.174;2022-10-16T05:58:33;101109.06;;;8.25;100.00
50349;BME280;36250;48.740;22.174;2022-10-16T06:01:04;101108.44;;;8.31;100.00
50349;BME280;36250;48.740;22.174;2022-10-16T06:03:30;101112.34;;;8.45;100.00
50349;BME280;36250;48.740;22.174;2022-10-16T06:05:55;101109.00;;;8.61;100.00
50349;BME280;36250;48.740;22.174;2022-10-16T06:08:22;101122.47;;;8.76;100.00
50349;BME280;36250;48.740;22.174;2022-10-16T06:10:49;101131.31;;;8.93;100.00
50349;BME280;36250;48.740;22.174;2022-10-16T06:13:14;101127.09;;;9.09;100.00
50349;BME280;36250;48.740;22.174;2022-10-16T06:15:41;101126.34;;;9.25;100.00
50349;BME280;36250;48.740;22.174;2022-10-16T06:18:08;101122.75;;;9.34;100.00
50349;BME280;36250;48.740;22.174;2022-10-16T06:20:34;101136.81;;;9.43;100.00
50349;BME280;36250;48.740;22.174;2022-10-16T06:22:59;101136.38;;;9.56;100.00
50349;BME280;36250;48.740;22.174;2022-10-16T06:25:24;101140.22;;;9.62;100.00
50349;BME280;36250;48.740;22.174;2022-10-16T06:27:50;101155.09;;;9.71;100.00
50349;BME280;36250;48.740;22.174;2022-10-16T06:30:15;101156.63;;;9.82;100.00
50349;BME280;36250;48.740;22.174;2022-10-16T06:32:40;101163.91;;;9.88;100.00
50349;BME280;36250;48.740;22.174;2022-10-16T06:35:06;101163.59;;;9.91;100.00
50349;BME280;36250;48.740;22.174;2022-10-16T06:37:31;101168.72;;;10.01;100.00
50349;BME280;36250;48.740;22.174;2022-10-16T06:39:56;101175.03;;;10.17;100.00
50349;BME280;36250;48.740;22.174;2022-10-16T06:42:22;101176.69;;;10.34;100.00
50349;BME280;36250;48.740;22.174;2022-10-16T06:44:47;101165.63;;;10.47;100.00
50349;BME280;36250;48.740;22.174;2022-10-16T06:47:12;101165.78;;;10.62;100.00
50349;BME280;36250;48.740;22.174;2022-10-16T06:49:37;101173.53;;;10.80;100.00
50349;BME280;36250;48.740;22.174;2022-10-16T06:52:03;101177.66;;;10.99;100.00
50349;BME280;36250;48.740;22.174;2022-10-16T06:54:28;101182.25;;;11.14;100.00
50349;BME280;36250;48.740;22.174;2022-10-16T06:56:54;101184.84;;;11.30;100.00
50349;BME280;36250;48.740;22.174;2022-10-16T06:59:20;101186.09;;;11.51;100.00
50349;BME280;36250;48.740;22.174;2022-10-16T07:01:46;101184.84;;;11.70;100.00
50349;BME280;36250;48.740;22.174;2022-10-16T07:04:11;101193.25;;;11.82;100.00
50349;BME280;36250;48.740;22.174;2022-10-16T07:06:37;101190.19;;;11.94;100.00
50349;BME280;36250;48.740;22.174;2022-10-16T07:09:05;101188.19;;;12.04;100.00
50349;BME280;36250;48.740;22.174;2022-10-16T07:11:31;101193.72;;;12.17;100.00
50349;BME280;36250;48.740;22.174;2022-10-16T07:13:56;101194.44;;;12.35;100.00
50349;BME280;36250;48.740;22.174;2022-10-16T07:16:24;101198.44;;;12.54;100.00
50349;BME280;36250;48.740;22.174;2022-10-16T07:18:50;101196.97;;;12.66;100.00
50349;BME280;36250;48.740;22.174;2022-10-16T07:21:20;101193.50;;;12.81;100.00
50349;BME280;36250;48.740;22.174;2022-10-16T07:23:59;101197.31;;;13.01;100.00
50349;BME280;36250;48.740;22.174;2022-10-16T07:26:27;101195.19;;;13.12;100.00
50349;BME280;36250;48.740;22.174;2022-10-16T07:28:53;101202.28;;;13.19;100.00
50349;BME280;36250;48.740;22.174;2022-10-16T07:31:19;101198.34;;;13.30;100.00
50349;BME280;36250;48.740;22.174;2022-10-16T07:33:46;101193.06;;;13.37;100.00
50349;BME280;36250;48.740;22.174;2022-10-16T07:36:13;101189.25;;;13.40;100.00
50349;BME280;36250;48.740;22.174;2022-10-16T07:38:39;101194.56;;;13.40;100.00
50349;BME280;36250;48.740;22.174;2022-10-16T07:41:10;101191.91;;;13.40;100.00
50349;BME280;36250;48.740;22.174;2022-10-16T07:43:37;101200.19;;;13.45;100.00
50349;BME280;36250;48.740;22.174;2022-10-16T07:46:02;101199.44;;;13.51;100.00
50349;BME280;36250;48.740;22.174;2022-10-16T07:48:31;101200.72;;;13.55;100.00
50349;BME280;36250;48.740;22.174;2022-10-16T07:51:00;101196.28;;;13.62;100.00
50349;BME280;36250;48.740;22.174;2022-10-16T07:53:27;101199.50;;;13.73;100.00
50349;BME280;36250;48.740;22.174;2022-10-16T07:55:57;101207.16;;;13.83;100.00
50349;BME280;36250;48.740;22.174;2022-10-16T07:58:23;101209.53;;;13.93;100.00
50349;BME280;36250;48.740;22.174;2022-10-16T08:00:48;101211.00;;;13.95;100.00
50349;BME280;36250;48.740;22.174;2022-10-16T08:03:13;101210.25;;;14.01;100.00
50349;BME280;36250;48.740;22.174;2022-10-16T08:05:39;101218.31;;;14.08;100.00
50349;BME280;36250;48.740;22.174;2022-10-16T08:08:04;101223.91;;;14.13;100.00
50349;BME280;36250;48.740;22.174;2022-10-16T08:10:29;101223.56;;;14.23;100.00
50349;BME280;36250;48.740;22.174;2022-10-16T08:12:55;101223.66;;;14.30;100.00
50349;BME280;36250;48.740;22.174;2022-10-16T08:15:21;101235.19;;;14.37;100.00
50349;BME280;36250;48.740;22.174;2022-10-16T08:17:58;101231.97;;;14.42;100.00
50349;BME280;36250;48.740;22.174;2022-10-16T08:20:23;101232.66;;;14.51;100.00
50349;BME280;36250;48.740;22.174;2022-10-16T08:22:49;101233.34;;;14.59;100.00
50349;BME280;36250;48.740;22.174;2022-10-16T08:25:14;101229.38;;;14.70;100.00
50349;BME280;36250;48.740;22.174;2022-10-16T08:27:39;101235.38;;;14.79;100.00
50349;BME280;36250;48.740;22.174;2022-10-16T08:30:05;101224.81;;;14.92;100.00
50349;BME280;36250;48.740;22.174;2022-10-16T08:32:31;101230.44;;;15.04;100.00
50349;BME280;36250;48.740;22.174;2022-10-16T08:34:56;101226.34;;;15.09;100.00
50349;BME280;36250;48.740;22.174;2022-10-16T08:37:21;101226.53;;;15.07;100.00
50349;BME280;36250;48.740;22.174;2022-10-16T08:39:47;101230.84;;;15.08;100.00
50349;BME280;36250;48.740;22.174;2022-10-16T08:42:17;101226.41;;;15.15;100.00
50349;BME280;36250;48.740;22.174;2022-10-16T08:45:06;101226.88;;;15.26;100.00
50349;BME280;36250;48.740;22.174;2022-10-16T08:47:48;101229.38;;;15.34;100.00
50349;BME280;36250;48.740;22.174;2022-10-16T08:50:21;101226.34;;;15.44;100.00
50349;BME280;36250;48.740;22.174;2022-10-16T08:52:49;101226.22;;;15.59;100.00
50349;BME280;36250;48.740;22.174;2022-10-16T08:55:41;101222.13;;;15.70;99.97
50349;BME280;36250;48.740;22.174;2022-10-16T08:58:12;101223.59;;;15.72;99.11
50349;BME280;36250;48.740;22.174;2022-10-16T09:00:39;101234.69;;;15.76;98.53
50349;BME280;36250;48.740;22.174;2022-10-16T09:05:50;101249.31;;;15.87;98.45
50349;BME280;36250;48.740;22.174;2022-10-16T09:13:35;101240.56;;;16.06;93.98
50349;BME280;36250;48.740;22.174;2022-10-16T09:16:19;101243.66;;;16.10;91.65
50349;BME280;36250;48.740;22.174;2022-10-16T09:19:12;101245.50;;;16.10;92.27
50349;BME280;36250;48.740;22.174;2022-10-16T09:21:41;101252.31;;;16.19;94.43
50349;BME280;36250;48.740;22.174;2022-10-16T09:24:13;101246.38;;;16.30;88.90
50349;BME280;36250;48.740;22.174;2022-10-16T09:26:39;101242.47;;;16.33;87.27
50349;BME280;36250;48.740;22.174;2022-10-16T09:29:04;101254.41;;;16.37;84.98
50349;BME280;36250;48.740;22.174;2022-10-16T09:31:30;101247.63;;;16.41;82.83
50349;BME280;36250;48.740;22.174;2022-10-16T09:33:59;101245.34;;;16.38;82.94
50349;BME280;36250;48.740;22.174;2022-10-16T09:36:25;101248.44;;;16.35;84.75
50349;BME280;36250;48.740;22.174;2022-10-16T09:39:05;101247.59;;;16.28;82.46
50349;BME280;36250;48.740;22.174;2022-10-16T09:41:34;101242.50;;;16.40;84.76
50349;BME280;36250;48.740;22.174;2022-10-16T09:44:02;101250.50;;;16.53;84.46
50349;BME280;36250;48.740;22.174;2022-10-16T09:46:34;101254.44;;;16.64;84.32
50349;BME280;36250;48.740;22.174;2022-10-16T09:51:28;101247.63;;;16.82;83.50
50349;BME280;36250;48.740;22.174;2022-10-16T09:54:02;101252.75;;;16.90;85.50
50349;BME280;36250;48.740;22.174;2022-10-16T09:56:38;101259.38;;;16.74;83.28
50349;BME280;36250;48.740;22.174;2022-10-16T09:59:14;101257.53;;;16.81;85.64
50349;BME280;36250;48.740;22.174;2022-10-16T10:01:45;101255.25;;;16.85;84.60
50349;BME280;36250;48.740;22.174;2022-10-16T10:04:11;101248.03;;;16.72;85.56
50349;BME280;36250;48.740;22.174;2022-10-16T10:06:41;101252.97;;;16.82;88.85
50349;BME280;36250;48.740;22.174;2022-10-16T10:12:04;101241.06;;;17.04;81.92
50349;BME280;36250;48.740;22.174;2022-10-16T10:14:35;101232.63;;;17.14;84.20
50349;BME280;36250;48.740;22.174;2022-10-16T10:19:42;101243.66;;;17.31;84.21
50349;BME280;36250;48.740;22.174;2022-10-16T10:22:22;101240.13;;;17.51;83.15
50349;BME280;36250;48.740;22.174;2022-10-16T10:24:56;101236.16;;;17.67;82.17
50349;BME280;36250;48.740;22.174;2022-10-16T10:27:31;101235.38;;;17.53;82.66
50349;BME280;36250;48.740;22.174;2022-10-16T10:30:08;101235.13;;;17.61;82.92
50349;BME280;36250;48.740;22.174;2022-10-16T10:35:22;101227.44;;;17.72;85.01
50349;BME280;36250;48.740;22.174;2022-10-16T10:38:29;101236.66;;;17.89;83.55
50349;BME280;36250;48.740;22.174;2022-10-16T10:41:10;101233.31;;;17.94;81.48
50349;BME280;36250;48.740;22.174;2022-10-16T10:43:46;101236.13;;;18.13;81.47
50349;BME280;36250;48.740;22.174;2022-10-16T10:46:26;101229.63;;;18.27;80.25
50349;BME280;36250;48.740;22.174;2022-10-16T10:49:11;101231.19;;;18.16;80.31
50349;BME280;36250;48.740;22.174;2022-10-16T10:52:02;101229.59;;;18.34;81.54
50349;BME280;36250;48.740;22.174;2022-10-16T10:54:43;101222.84;;;18.57;78.98
50349;BME280;36250;48.740;22.174;2022-10-16T11:00:33;101222.41;;;18.60;78.55
50349;BME280;36250;48.740;22.174;2022-10-16T11:05:58;101224.53;;;18.95;77.84
50349;BME280;36250;48.740;22.174;2022-10-16T11:08:29;101227.44;;;19.00;76.47
50349;BME280;36250;48.740;22.174;2022-10-16T11:10:59;101224.31;;;18.96;75.71
50349;BME280;36250;48.740;22.174;2022-10-16T11:15:58;101219.53;;;19.05;75.20
50349;BME280;36250;48.740;22.174;2022-10-16T11:18:50;101216.69;;;19.19;75.06
50349;BME280;36250;48.740;22.174;2022-10-16T11:21:19;101208.19;;;19.22;74.33
50349;BME280;36250;48.740;22.174;2022-10-16T11:23:55;101204.84;;;19.27;74.61
50349;BME280;36250;48.740;22.174;2022-10-16T11:26:42;101208.25;;;19.34;74.60
50349;BME280;36250;48.740;22.174;2022-10-16T11:29:16;101204.50;;;19.53;74.30
50349;BME280;36250;48.740;22.174;2022-10-16T11:31:49;101195.81;;;19.70;73.09
50349;BME280;36250;48.740;22.174;2022-10-16T11:34:24;101194.81;;;19.83;71.72
50349;BME280;36250;48.740;22.174;2022-10-16T11:37:08;101195.16;;;19.87;70.49
50349;BME280;36250;48.740;22.174;2022-10-16T11:39:35;101191.97;;;19.96;70.45
50349;BME280;36250;48.740;22.174;2022-10-16T11:42:05;101189.53;;;20.07;70.60
50349;BME280;36250;48.740;22.174;2022-10-16T11:47:40;101190.06;;;20.27;69.69
50349;BME280;36250;48.740;22.174;2022-10-16T11:52:44;101184.22;;;20.43;68.73
50349;BME280;36250;48.740;22.174;2022-10-16T11:55:18;101179.75;;;20.36;68.22
50349;BME280;36250;48.740;22.174;2022-10-16T11:57:58;101185.03;;;20.55;67.66
50349;BME280;36250;48.740;22.174;2022-10-16T12:08:45;101181.88;;;20.70;65.55
50349;BME280;36250;48.740;22.174;2022-10-16T12:11:30;101165.16;;;24.73;52.56
50349;BME280;36250;48.740;22.174;2022-10-16T12:16:38;101133.13;;;32.05;30.65
50349;BME280;36250;48.740;22.174;2022-10-16T12:19:19;101142.09;;;30.03;32.07
50349;BME280;36250;48.740;22.174;2022-10-16T12:21:45;101150.09;;;28.60;34.02
50349;BME280;36250;48.740;22.174;2022-10-16T12:24:22;101156.41;;;27.06;37.66
50349;BME280;36250;48.740;22.174;2022-10-16T12:26:53;101164.97;;;26.63;38.27
50349;BME280;36250;48.740;22.174;2022-10-16T12:31:55;101150.66;;;29.96;32.46
50349;BME280;36250;48.740;22.174;2022-10-16T12:34:50;101146.38;;;33.28;28.76
50349;BME280;36250;48.740;22.174;2022-10-16T12:37:22;101131.41;;;36.21;23.77
50349;BME280;36250;48.740;22.174;2022-10-16T12:39:49;101137.50;;;36.76;23.14
50349;BME280;36250;48.740;22.174;2022-10-16T12:42:22;101131.31;;;38.61;21.30
50349;BME280;36250;48.740;22.174;2022-10-16T12:44:48;101121.63;;;39.93;18.89
50349;BME280;36250;48.740;22.174;2022-10-16T12:49:58;101120.88;;;40.50;17.55
50349;BME280;36250;48.740;22.174;2022-10-16T12:52:28;101124.94;;;39.16;19.45
50349;BME280;36250;48.740;22.174;2022-10-16T12:54:57;101124.75;;;40.41;18.21
50349;BME280;36250;48.740;22.174;2022-10-16T13:00:24;101112.16;;;40.78;18.19
50349;BME280;36250;48.740;22.174;2022-10-16T13:08:39;101115.28;;;40.19;18.25
50349;BME280;36250;48.740;22.174;2022-10-16T13:11:33;101121.34;;;41.54;16.98
50349;BME280;36250;48.740;22.174;2022-10-16T13:25:39;101125.63;;;36.76;19.23
50349;BME280;36250;48.740;22.174;2022-10-16T13:28:10;101127.41;;;37.37;19.38
50349;BME280;36250;48.740;22.174;2022-10-16T13:30:43;101118.09;;;37.14;19.45
50349;BME280;36250;48.740;22.174;2022-10-16T13:35:35;101123.41;;;36.94;19.67
50349;BME280;36250;48.740;22.174;2022-10-16T13:38:16;101133.31;;;38.12;19.06
50349;BME280;36250;48.740;22.174;2022-10-16T13:40:56;101122.78;;;39.06;17.95
50349;BME280;36250;48.740;22.174;2022-10-16T13:48:39;101139.72;;;37.85;19.12
50349;BME280;36250;48.740;22.174;2022-10-16T13:51:06;101142.72;;;37.06;19.18
50349;BME280;36250;48.740;22.174;2022-10-16T13:53:36;101145.63;;;36.48;19.52
50349;BME280;36250;48.740;22.174;2022-10-16T13:56:05;101145.78;;;36.39;19.95
50349;BME280;36250;48.740;22.174;2022-10-16T13:58:31;101142.16;;;35.89;20.48
50349;BME280;36250;48.740;22.174;2022-10-16T14:01:05;101153.72;;;34.16;21.69
50349;BME280;36250;48.740;22.174;2022-10-16T14:03:32;101159.00;;;33.56;23.28
50349;BME280;36250;48.740;22.174;2022-10-16T14:06:03;101154.63;;;30.79;26.42
50349;BME280;36250;48.740;22.174;2022-10-16T14:08:30;101162.69;;;27.46;31.21